Time;durP1;ratioP1;P1;durP2;ratioP2;P2;SDS_P1;SDS_P2;PMS_P1;PMS_P2;Temp;Humidity;BMP_temperature;BMP_pressure;BME280_temperature;BME280_humidity;BME280_pressure;Samples;Min_cycle;Max_cycle;Signal;HPM_P1;HPM_P2
2022/08/28 00:02:15;;;;;;;15.65;8.58;;;;;;;18.54;100.00;98651.37;4464699;77;21614;-83
2022/08/28 00:08:17;;;;;;;13.90;8.78;;;;;;;18.63;100.00;98652.16;4456115;77;20948;-83
2022/08/28 00:14:19;;;;;;;12.80;9.55;;;;;;;18.61;100.00;98657.34;4468979;77;21619;-83
2022/08/28 00:20:23;;;;;;;10.78;7.55;;;;;;;18.62;100.00;98666.61;4452581;77;21051;-83
2022/08/28 00:32:44;;;;;;;12.95;8.48;;;;;;;18.64;100.00;98646.77;4455274;77;21045;-83
2022/08/28 00:38:46;;;;;;;13.40;8.90;;;;;;;18.56;100.00;98638.47;4318830;79;21036;-83
2022/08/28 00:44:47;;;;;;;10.90;8.38;;;;;;;18.54;100.00;98639.53;4313020;79;21027;-83
2022/08/28 00:57:14;;;;;;;9.88;8.33;;;;;;;18.57;100.00;98635.89;4473431;77;20967;-83
2022/08/28 01:03:15;;;;;;;15.40;8.93;;;;;;;18.55;100.00;98629.99;4322215;80;20987;-83
2022/08/28 01:09:17;;;;;;;13.15;8.63;;;;;;;18.49;100.00;98628.37;4474006;77;20985;-83
2022/08/28 01:15:23;;;;;;;10.38;8.55;;;;;;;18.43;100.00;98624.55;4493440;77;21527;-83
2022/08/28 01:21:41;;;;;;;;;;;;;;;18.33;100.00;98626.97;4462103;77;21442;-84
2022/08/28 01:27:43;;;;;;;11.97;7.65;;;;;;;18.41;100.00;98631.75;4470451;77;20122;-84
2022/08/28 01:33:46;;;;;;;12.47;7.87;;;;;;;18.47;100.00;98628.02;4457942;77;21032;-84
2022/08/28 01:39:47;;;;;;;11.20;7.67;;;;;;;18.50;100.00;98627.15;4446097;77;21040;-84
2022/08/28 01:45:56;;;;;;;13.35;8.28;;;;;;;18.44;100.00;98621.17;4308792;79;21687;-83
2022/08/28 01:51:58;;;;;;;15.38;8.98;;;;;;;18.53;100.00;98637.36;4454518;76;21014;-83
2022/08/28 01:57:59;;;;;;;16.42;9.53;;;;;;;18.60;100.00;98647.48;4442884;76;21018;-84
2022/08/28 02:04:03;;;;;;;18.87;9.90;;;;;;;18.64;100.00;98657.27;4450173;76;21538;-84
2022/08/28 02:10:10;;;;;;;17.57;10.25;;;;;;;18.70;100.00;98640.27;4457309;77;20987;-84
2022/08/28 02:16:12;;;;;;;15.38;9.75;;;;;;;18.56;100.00;98652.33;4455943;76;20988;-83
2022/08/28 02:22:13;;;;;;;14.95;9.80;;;;;;;18.48;100.00;98650.35;4473229;76;21035;-84
2022/08/28 02:28:14;;;;;;;13.15;9.95;;;;;;;18.48;100.00;98655.11;4455426;77;21039;-83
2022/08/28 02:34:16;;;;;;;12.85;9.05;;;;;;;18.53;100.00;98658.75;4462682;77;20971;-84
2022/08/28 02:40:21;;;;;;;14.45;9.10;;;;;;;18.54;100.00;98653.39;4483666;76;21010;-84
2022/08/28 02:46:23;;;;;;;13.10;9.68;;;;;;;18.43;100.00;98652.27;4427999;77;21046;-83
2022/08/28 02:52:25;;;;;;;11.73;8.45;;;;;;;18.41;100.00;98649.77;4481143;77;21803;-83
2022/08/28 02:58:31;;;;;;;11.85;7.75;;;;;;;18.30;100.00;98647.24;4323396;79;21067;-84
2022/08/28 03:04:34;;;;;;;10.75;9.23;;;;;;;18.23;100.00;98643.25;4329972;80;21023;-83
2022/08/28 03:10:36;;;;;;;14.23;10.10;;;;;;;18.22;100.00;98652.78;4453028;78;20998;-84
2022/08/28 03:16:37;;;;;;;15.80;10.03;;;;;;;18.17;100.00;98656.07;4445226;78;21629;-83
2022/08/28 03:28:59;;;;;;;15.90;10.03;;;;;;;17.98;100.00;98665.23;4467289;77;21034;-82
2022/08/28 03:35:01;;;;;;;13.75;10.32;;;;;;;17.86;100.00;98673.44;4477921;77;21601;-83
2022/08/28 03:41:02;;;;;;;13.90;8.93;;;;;;;17.72;100.00;98674.55;4470617;77;20996;-83
2022/08/28 03:47:05;;;;;;;11.57;9.93;;;;;;;17.60;100.00;98689.07;4532935;76;21401;-83
2022/08/28 03:53:06;;;;;;;16.93;11.70;;;;;;;17.67;100.00;98702.73;4513267;76;21000;-83
2022/08/28 03:59:08;;;;;;;14.90;9.18;;;;;;;17.69;100.00;98704.48;4516324;76;21337;-84
2022/08/28 04:05:11;;;;;;;13.98;10.23;;;;;;;17.79;100.00;98708.23;4473080;77;21786;-84
2022/08/28 04:11:12;;;;;;;14.00;9.13;;;;;;;17.75;100.00;98709.69;4476273;77;21059;-83
2022/08/28 04:17:13;;;;;;;17.60;11.08;;;;;;;17.70;100.00;98703.27;4473404;77;20985;-83
2022/08/28 04:23:15;;;;;;;14.35;10.75;;;;;;;17.62;100.00;98711.55;4479731;77;21340;-83
2022/08/28 04:29:17;;;;;;;17.25;11.10;;;;;;;17.66;100.00;98726.10;4480277;77;21023;-83
2022/08/28 04:35:18;;;;;;;13.72;10.45;;;;;;;17.80;100.00;98729.16;4356190;79;20998;-83
2022/08/28 04:41:20;;;;;;;12.28;10.28;;;;;;;17.92;100.00;98727.09;4411273;78;21678;-83
2022/08/28 04:47:22;;;;;;;11.08;9.45;;;;;;;18.06;100.00;98728.95;4370047;79;21025;-83
2022/08/28 04:53:24;;;;;;;12.25;9.15;;;;;;;18.19;100.00;98724.30;4474068;77;21930;-82
2022/08/28 04:59:26;;;;;;;13.38;10.30;;;;;;;18.31;100.00;98733.89;4482198;77;21013;-84
2022/08/28 05:05:27;;;;;;;12.03;9.75;;;;;;;18.30;100.00;98725.42;4515332;76;21775;-83
2022/08/28 05:11:30;;;;;;;13.03;9.95;;;;;;;18.19;100.00;98731.22;4537476;76;20982;-83
2022/08/28 05:17:32;;;;;;;15.72;9.93;;;;;;;18.21;100.00;98746.79;4514264;76;21037;-84
2022/08/28 05:23:33;;;;;;;13.30;11.53;;;;;;;18.24;100.00;98741.01;4510228;76;20978;-83
2022/08/28 05:29:35;;;;;;;14.20;9.88;;;;;;;18.23;100.00;98736.66;4462665;76;20968;-83
2022/08/28 05:35:40;;;;;;;19.07;11.08;;;;;;;18.20;100.00;98742.47;4458463;78;21041;-84
2022/08/28 05:41:44;;;;;;;29.37;12.05;;;;;;;18.23;100.00;98731.12;4460343;78;20955;-82
2022/08/28 05:47:46;;;;;;;13.68;10.10;;;;;;;18.21;100.00;98729.41;4455393;78;20998;-83
2022/08/28 05:53:48;;;;;;;15.45;11.18;;;;;;;18.15;100.00;98748.52;4454474;78;21927;-83
2022/08/28 05:59:50;;;;;;;15.00;10.58;;;;;;;18.24;100.00;98741.01;4452976;78;21466;-83
2022/08/28 06:05:54;;;;;;;16.42;12.10;;;;;;;18.35;100.00;98729.06;4457552;78;20970;-84
2022/08/28 06:11:59;;;;;;;18.10;11.70;;;;;;;18.49;100.00;98719.05;4462656;78;20976;-83
2022/08/28 06:18:01;;;;;;;14.35;10.78;;;;;;;18.65;100.00;98717.03;4456456;78;21789;-83
2022/08/28 06:24:03;;;;;;;13.35;10.78;;;;;;;18.83;100.00;98715.19;4459676;78;20958;-84
2022/08/28 06:30:07;;;;;;;14.63;10.05;;;;;;;19.10;100.00;98714.86;4470210;77;21963;-84
2022/08/28 06:36:10;;;;;;;13.30;9.45;;;;;;;19.41;100.00;98713.22;4490866;76;21507;-84
2022/08/28 06:42:11;;;;;;;13.00;8.53;;;;;;;19.63;100.00;98699.67;4465787;76;21010;-84
2022/08/28 06:48:15;;;;;;;11.60;8.25;;;;;;;19.86;100.00;98696.58;4481506;77;21029;-84
2022/08/28 06:54:18;;;;;;;9.95;8.03;;;;;;;20.07;100.00;98709.82;4456396;77;20971;-84
2022/08/28 07:00:19;;;;;;;9.23;6.72;;;;;;;20.25;100.00;98706.48;4461840;77;21961;-84
2022/08/28 07:06:23;;;;;;;8.48;7.00;;;;;;;20.43;100.00;98694.19;4462875;77;21837;-84
2022/08/28 07:12:24;;;;;;;12.65;6.30;;;;;;;20.61;100.00;98688.03;4460085;78;21040;-84
2022/08/28 07:18:26;;;;;;;7.83;5.83;;;;;;;20.80;100.00;98686.95;4468344;76;21096;-85
2022/08/28 07:24:28;;;;;;;15.98;6.83;;;;;;;20.98;100.00;98691.33;4482202;77;21935;-84
2022/08/28 07:30:29;;;;;;;7.62;6.80;;;;;;;21.21;100.00;98700.02;4528270;76;20978;-84
2022/08/28 07:36:31;;;;;;;10.90;7.00;;;;;;;21.46;100.00;98699.09;4503114;76;21038;-84
2022/08/28 07:48:52;;;;;;;10.05;7.67;;;;;;;21.98;100.00;98705.30;4363664;79;22190;-84
2022/08/28 07:54:55;;;;;;;16.57;7.58;;;;;;;22.33;100.00;98705.28;4478967;77;21019;-84
2022/08/28 08:01:00;;;;;;;11.48;6.47;;;;;;;22.57;100.00;98704.28;4414741;77;21071;-84
2022/08/28 08:07:03;;;;;;;12.37;6.90;;;;;;;22.88;99.17;98699.36;4370055;78;21392;-84
2022/08/28 08:13:05;;;;;;;10.38;6.00;;;;;;;23.38;97.61;98698.61;4506627;76;21543;-85
2022/08/28 08:19:12;;;;;;;9.33;5.55;;;;;;;23.74;96.50;98695.10;4514777;76;21026;-84
2022/08/28 08:25:13;;;;;;;;;;;;;;;23.94;93.86;98693.98;4522844;76;21086;-84
2022/08/28 08:31:25;;;;;;;10.68;5.30;;;;;;;23.76;91.94;98709.39;4529520;76;20125;-85
2022/08/28 08:37:26;;;;;;;8.30;5.90;;;;;;;23.70;92.41;98727.25;4529048;76;21033;-84
2022/08/28 08:43:32;;;;;;;7.85;5.33;;;;;;;23.66;91.56;98715.48;4498314;76;20966;-83
2022/08/28 08:49:51;;;;;;;9.93;5.90;;;;;;;23.52;91.30;98726.69;4516726;76;20998;-84
2022/08/28 08:55:55;;;;;;;8.78;5.70;;;;;;;23.45;90.79;98725.59;4472477;76;21009;-84
2022/08/28 09:02:21;;;;;;;8.13;5.72;;;;;;;23.39;90.36;98726.69;4515889;76;21545;-84
2022/08/28 09:08:43;;;;;;;13.32;5.83;;;;;;;23.35;89.89;98728.23;4534584;76;21032;-85
2022/08/28 09:15:08;;;;;;;10.18;5.75;;;;;;;23.37;90.00;98742.52;4490947;77;20979;-84
2022/08/28 09:21:08;;;;;;;8.75;5.22;;;;;;;23.47;89.21;98747.48;4487812;77;21003;-85
2022/08/28 09:27:31;;;;;;;11.83;6.00;;;;;;;23.55;88.26;98751.50;4476326;77;20996;-84
2022/08/28 09:33:41;;;;;;;7.95;5.10;;;;;;;23.60;88.29;98756.47;4463593;78;20968;-84
2022/08/28 09:39:43;;;;;;;6.75;5.30;;;;;;;23.64;87.74;98765.45;4476400;77;20949;-85
2022/08/28 09:46:00;;;;;;;9.38;5.70;;;;;;;23.69;87.42;98767.63;4460906;77;21491;-84
2022/08/28 09:52:10;;;;;;;8.73;5.33;;;;;;;23.70;87.88;98760.78;4470516;76;21024;-84
2022/08/28 09:58:11;;;;;;;7.80;5.58;;;;;;;23.69;88.00;98755.06;4309861;80;21031;-84
2022/08/28 10:04:35;;;;;;;8.85;5.40;;;;;;;23.64;87.78;98753.67;4458301;78;21058;-84
2022/08/28 10:10:41;;;;;;;9.90;5.37;;;;;;;23.61;87.71;98753.21;4457944;78;20977;-84
2022/08/28 10:16:54;;;;;;;10.32;5.42;;;;;;;23.55;86.64;98754.30;4464511;78;21006;-84
2022/08/28 10:23:16;;;;;;;12.45;6.00;;;;;;;23.57;86.37;98756.02;4462809;78;21848;-85
2022/08/28 10:29:29;;;;;;;6.08;4.58;;;;;;;23.53;86.53;98753.38;4462408;77;21016;-84
2022/08/28 10:35:53;;;;;;;10.58;5.62;;;;;;;23.50;85.88;98753.52;4518743;76;20995;-85
2022/08/28 10:41:59;;;;;;;8.43;5.65;;;;;;;23.51;85.52;98762.84;4488234;76;21624;-84
2022/08/28 10:48:17;;;;;;;7.55;5.92;;;;;;;23.49;85.61;98764.55;4494459;76;21619;-84
2022/08/28 10:54:24;;;;;;;9.80;5.65;;;;;;;23.41;85.64;98768.29;4514925;76;21038;-84
2022/08/28 11:00:27;;;;;;;11.33;6.30;;;;;;;23.36;85.91;98761.92;4522303;76;21443;-85
2022/08/28 11:06:40;;;;;;;8.63;5.67;;;;;;;23.36;85.86;98760.52;4492383;76;20943;-85
2022/08/28 11:12:42;;;;;;;10.95;5.83;;;;;;;23.44;86.33;98754.00;4473395;77;21469;-85
2022/08/28 11:19:07;;;;;;;10.05;6.00;;;;;;;23.55;85.30;98755.09;4467931;77;21576;-85
2022/08/28 11:25:20;;;;;;;10.78;6.08;;;;;;;23.63;84.90;98754.92;4479439;77;21091;-83
2022/08/28 11:31:33;;;;;;;10.65;5.92;;;;;;;23.70;84.61;98749.00;4468899;76;21050;-85
2022/08/28 11:37:44;;;;;;;8.98;5.75;;;;;;;23.75;84.14;98752.56;4452557;78;20939;-85
2022/08/28 11:43:52;;;;;;;7.35;5.25;;;;;;;23.83;83.71;98741.83;4448967;78;21605;-85
2022/08/28 11:50:14;;;;;;;8.08;6.08;;;;;;;23.94;83.69;98747.09;4429018;78;21798;-84
2022/08/28 11:56:45;;;;;;;8.45;6.25;;;;;;;24.03;83.87;98738.70;4452806;78;20974;-84
2022/08/28 12:02:55;;;;;;;12.07;6.12;;;;;;;24.20;83.74;98739.88;4405286;78;21852;-85
2022/08/28 12:09:01;;;;;;;7.92;5.50;;;;;;;24.51;83.87;98743.76;4439793;78;20988;-86
2022/08/28 12:15:07;;;;;;;14.43;6.40;;;;;;;25.04;83.53;98731.34;4460414;78;21915;-84
2022/08/28 12:21:22;;;;;;;10.97;4.97;;;;;;;25.30;82.21;98729.56;4444607;78;20990;-85
2022/08/28 12:27:25;;;;;;;8.60;5.60;;;;;;;25.44;81.20;98725.42;4460899;78;20968;-85
2022/08/28 12:33:50;;;;;;;10.15;4.62;;;;;;;25.53;80.51;98719.73;4438652;77;21007;-85
2022/08/28 12:39:52;;;;;;;8.55;5.33;;;;;;;25.62;80.03;98721.68;4442275;76;20951;-85
2022/08/28 12:46:05;;;;;;;10.45;4.90;;;;;;;25.68;79.74;98721.15;4444920;77;20991;-84
2022/08/28 12:52:18;;;;;;;6.95;5.28;;;;;;;25.71;79.50;98723.77;4462233;78;20956;-85
2022/08/28 12:58:35;;;;;;;9.50;4.65;;;;;;;25.65;78.57;98726.32;4448353;78;21000;-86
2022/08/28 13:04:52;;;;;;;8.15;5.20;;;;;;;25.71;78.12;98711.77;4449992;78;21586;-86
2022/08/28 13:10:55;;;;;;;9.18;4.83;;;;;;;25.62;78.15;98709.82;4445342;77;21031;-85
2022/08/28 13:16:56;;;;;;;10.72;5.70;;;;;;;25.62;77.97;98707.02;4474684;77;21432;-86
2022/08/28 13:23:03;;;;;;;7.60;5.40;;;;;;;25.59;78.42;98700.22;4453621;77;21035;-87
2022/08/28 13:29:18;;;;;;;7.08;4.90;;;;;;;25.59;77.74;98698.83;4443431;77;21572;-86
2022/08/28 13:35:38;;;;;;;8.40;5.17;;;;;;;25.56;77.38;98690.73;4465485;77;21559;-86
2022/08/28 13:41:41;;;;;;;9.03;6.03;;;;;;;25.37;77.06;98699.81;4417615;77;21469;-86
2022/08/28 13:47:43;;;;;;;7.22;5.67;;;;;;;25.19;77.21;98702.73;4475336;76;21038;-86
2022/08/28 13:53:44;;;;;;;8.83;5.62;;;;;;;25.02;77.21;98698.83;4470278;77;21633;-86
2022/08/28 13:59:45;;;;;;;8.10;5.37;;;;;;;24.96;77.69;98690.95;4479600;77;21447;-86
2022/08/28 14:05:47;;;;;;;9.28;6.08;;;;;;;24.90;77.56;98690.83;4454766;76;20975;-86
2022/08/28 14:11:50;;;;;;;12.82;5.70;;;;;;;24.83;77.57;98696.02;4476544;77;20952;-86
2022/08/28 14:17:52;;;;;;;7.97;5.92;;;;;;;24.78;77.65;98699.47;4323724;80;21941;-86
2022/08/28 14:23:54;;;;;;;10.43;6.42;;;;;;;24.72;77.79;98706.98;4469442;76;21065;-86
2022/08/28 14:29:56;;;;;;;11.18;6.22;;;;;;;24.68;78.11;98714.80;4282230;80;21169;-86
2022/08/28 14:35:57;;;;;;;11.55;6.78;;;;;;;24.67;78.70;98710.45;4327046;80;21082;-87
2022/08/28 14:41:59;;;;;;;8.30;6.00;;;;;;;24.62;79.11;98715.41;4317263;80;21477;-86
2022/08/28 14:48:00;;;;;;;8.70;6.55;;;;;;;24.55;79.73;98727.59;4470659;77;21868;-86
2022/08/28 14:54:04;;;;;;;9.75;7.67;;;;;;;24.48;80.32;98732.12;4470139;77;20991;-86
2022/08/28 15:00:07;;;;;;;7.90;6.10;;;;;;;24.42;80.84;98734.02;4463371;77;21008;-86
2022/08/28 15:06:09;;;;;;;9.53;7.42;;;;;;;24.32;81.24;98730.48;4454899;77;21308;-87
2022/08/28 15:12:11;;;;;;;11.03;8.90;;;;;;;24.14;81.89;98737.58;4317627;80;21041;-83
2022/08/28 15:18:13;;;;;;;12.40;9.38;;;;;;;24.02;82.67;98748.95;4310416;80;21054;-85
2022/08/28 15:24:38;;;;;;;12.25;8.33;;;;;;;23.99;83.28;98757.64;4468501;77;21036;-86
2022/08/28 15:30:43;;;;;;;10.28;7.58;;;;;;;23.90;83.00;98777.21;4472216;76;21024;-86
2022/08/28 15:36:46;;;;;;;11.05;8.15;;;;;;;23.51;82.57;98796.36;4434356;77;21043;-86
2022/08/28 15:42:47;;;;;;;17.75;7.75;;;;;;;23.19;82.58;98805.33;4464131;77;20991;-86
2022/08/28 15:48:50;;;;;;;9.10;7.05;;;;;;;22.80;82.92;98809.73;4468726;77;21694;-86
2022/08/28 15:54:52;;;;;;;8.10;5.83;;;;;;;22.46;83.29;98816.09;4319677;79;20964;-85
2022/08/28 16:00:54;;;;;;;9.25;6.08;;;;;;;22.12;83.66;98826.78;4473464;77;21007;-86
2022/08/28 16:06:55;;;;;;;8.75;6.12;;;;;;;21.93;84.26;98832.69;4476637;77;20941;-84
2022/08/28 16:12:57;;;;;;;8.09;6.02;;;;;;;21.79;85.23;98835.38;4342009;76;10003148;-85
2022/08/28 16:19:00;;;;;;;12.20;7.35;;;;;;;21.71;86.13;98832.05;4454583;77;20958;-85
2022/08/28 16:25:03;;;;;;;8.83;6.85;;;;;;;21.62;87.02;98834.77;4490021;77;21016;-85
2022/08/28 16:31:07;;;;;;;12.10;7.45;;;;;;;21.46;87.38;98842.52;4483933;77;20963;-84
2022/08/28 16:37:09;;;;;;;10.53;7.42;;;;;;;21.34;88.62;98844.73;4480998;76;20952;-85
2022/08/28 16:43:11;;;;;;;7.33;6.05;;;;;;;21.25;89.24;98852.38;4492445;77;21558;-85
2022/08/28 16:49:13;;;;;;;8.28;5.85;;;;;;;21.11;90.25;98839.57;4496183;77;21006;-86
2022/08/28 16:55:15;;;;;;;7.55;5.58;;;;;;;21.02;90.42;98828.33;4504858;77;20956;-85
2022/08/28 17:01:16;;;;;;;8.18;5.70;;;;;;;20.96;91.04;98827.34;4496845;76;20984;-86
2022/08/28 17:07:18;;;;;;;7.37;5.72;;;;;;;20.80;90.73;98828.22;4484992;77;21951;-85
2022/08/28 17:13:19;;;;;;;9.53;6.67;;;;;;;20.63;91.49;98832.36;4493242;76;21036;-86
2022/08/28 17:19:23;;;;;;;6.53;5.80;;;;;;;20.58;92.20;98830.13;4499982;76;21004;-85
2022/08/28 17:25:25;;;;;;;6.70;6.00;;;;;;;20.53;92.90;98827.89;4495763;76;21029;-85
2022/08/28 17:31:27;;;;;;;7.80;5.90;;;;;;;20.50;93.04;98835.74;4341007;80;20980;-86
2022/08/28 17:37:28;;;;;;;9.40;6.70;;;;;;;20.44;93.59;98833.98;4463019;78;21472;-85
2022/08/28 17:43:30;;;;;;;7.95;5.50;;;;;;;20.39;93.93;98841.48;4322047;80;20994;-86
2022/08/28 17:49:31;;;;;;;9.03;6.40;;;;;;;20.36;94.28;98846.55;4335672;80;21058;-85
2022/08/28 17:55:33;;;;;;;8.05;5.90;;;;;;;20.27;94.70;98863.08;4325310;80;20972;-85
2022/08/28 18:01:34;;;;;;;9.18;6.10;;;;;;;20.25;94.98;98857.96;4323982;80;21039;-86
2022/08/28 18:07:36;;;;;;;8.20;6.35;;;;;;;20.16;95.65;98853.67;4346914;80;20963;-86
2022/08/28 18:13:39;;;;;;;9.48;7.15;;;;;;;20.16;95.84;98870.34;4462180;77;20985;-85
2022/08/28 18:19:41;;;;;;;9.30;6.22;;;;;;;20.07;96.19;98875.15;4471598;76;20972;-85
2022/08/28 18:25:47;;;;;;;9.85;6.00;;;;;;;20.03;96.15;98891.13;4470895;76;21034;-86
2022/08/28 18:31:48;;;;;;;10.57;6.27;;;;;;;19.93;96.46;98896.98;4443923;77;21019;-85
2022/08/28 18:37:50;;;;;;;10.75;5.53;;;;;;;19.86;96.63;98898.56;4445061;77;20989;-85
2022/08/28 18:43:58;;;;;;;7.25;6.05;;;;;;;19.75;96.87;98891.13;4445574;78;20961;-85
2022/08/28 18:49:56;;;;;;;8.63;6.30;;;;;;;19.65;97.28;98897.77;4439574;77;21022;-86
2022/08/28 18:55:57;;;;;;;7.37;6.50;;;;;;;19.64;97.55;98898.97;4446224;77;21035;-86
2022/08/28 19:01:59;;;;;;;7.53;5.92;;;;;;;19.68;98.20;98905.22;4453415;77;21043;-86
2022/08/28 19:08:01;;;;;;;8.55;6.58;;;;;;;19.70;98.64;98902.80;4442818;77;21955;-86
2022/08/28 19:14:03;;;;;;;11.00;7.30;;;;;;;19.70;98.32;98905.58;4455933;77;20987;-85
2022/08/28 19:20:13;;;;;;;8.50;6.45;;;;;;;19.68;98.71;98909.39;4443511;77;21610;-85
2022/08/28 19:26:14;;;;;;;11.78;6.58;;;;;;;19.58;98.93;98921.55;4452175;77;20967;-85
2022/08/28 19:32:16;;;;;;;9.90;7.25;;;;;;;19.53;99.55;98924.88;4488042;76;21396;-85
2022/08/28 19:38:18;;;;;;;10.93;6.15;;;;;;;19.55;100.00;98919.05;4507553;76;20963;-85
2022/08/28 19:44:19;;;;;;;13.78;6.85;;;;;;;19.61;100.00;98917.30;4360182;79;22028;-85
2022/08/28 19:50:21;;;;;;;7.80;5.78;;;;;;;19.66;100.00;98923.71;4514278;76;21509;-85
2022/08/28 19:56:25;;;;;;;8.40;6.20;;;;;;;19.67;100.00;98930.81;4505603;76;21035;-85
2022/08/28 20:02:27;;;;;;;8.80;7.08;;;;;;;19.56;100.00;98920.59;4513999;76;20977;-85
2022/08/28 20:08:29;;;;;;;10.25;6.47;;;;;;;19.54;100.00;98921.66;4523346;76;21011;-86
2022/08/28 20:14:33;;;;;;;9.35;6.72;;;;;;;19.55;100.00;98926.58;4473809;77;20990;-85
2022/08/28 20:20:34;;;;;;;11.15;7.40;;;;;;;19.53;100.00;98924.88;4472786;77;21063;-85
2022/08/28 20:26:36;;;;;;;10.35;7.35;;;;;;;19.52;100.00;98923.30;4472083;77;20946;-86
2022/08/28 20:32:37;;;;;;;9.88;6.95;;;;;;;19.50;100.00;98921.55;4326638;79;22208;-85
2022/08/28 20:38:39;;;;;;;8.00;6.28;;;;;;;19.46;100.00;98928.61;4305558;80;20984;-85
2022/08/28 20:44:41;;;;;;;9.25;7.35;;;;;;;19.49;100.00;98936.06;4303415;80;20964;-85
2022/08/28 20:50:42;;;;;;;9.28;6.22;;;;;;;19.50;100.00;98934.05;4305944;80;21019;-85
2022/08/28 20:56:43;;;;;;;6.85;5.50;;;;;;;19.50;100.00;98944.55;4302742;80;20988;-85
2022/08/28 21:02:44;;;;;;;10.35;6.05;;;;;;;19.55;100.00;98939.08;4307621;80;21058;-86
2022/08/28 21:08:48;;;;;;;11.55;6.10;;;;;;;19.60;100.00;98938.55;4372283;79;21039;-85
2022/08/28 21:14:51;;;;;;;12.80;6.17;;;;;;;19.62;100.00;98938.91;4288029;81;21071;-85
2022/08/28 21:20:53;;;;;;;13.18;6.85;;;;;;;19.62;100.00;98942.44;4323802;80;21058;-85
2022/08/28 21:26:56;;;;;;;10.48;7.05;;;;;;;19.62;100.00;98940.30;4309685;81;21006;-86
2022/08/28 21:32:57;;;;;;;11.75;7.85;;;;;;;19.57;100.00;98944.98;4469611;77;21025;-86
2022/08/28 21:38:59;;;;;;;12.55;8.18;;;;;;;19.56;100.00;98948.98;4444783;77;21020;-86
2022/08/28 21:45:01;;;;;;;12.47;9.88;;;;;;;19.50;100.00;98945.94;4459657;78;21028;-86
2022/08/28 21:51:07;;;;;;;13.83;10.63;;;;;;;19.50;100.00;98954.87;4458335;78;20989;-86
2022/08/28 21:57:08;;;;;;;14.97;10.33;;;;;;;19.37;100.00;98939.52;4458660;78;20986;-86
2022/08/28 22:03:13;;;;;;;17.98;12.13;;;;;;;19.37;100.00;98939.52;4464256;78;21417;-84
2022/08/28 22:09:14;;;;;;;14.87;12.10;;;;;;;19.48;100.00;98956.69;4459220;78;20932;-86
2022/08/28 22:15:16;;;;;;;15.10;11.68;;;;;;;19.50;100.00;98960.42;4468587;78;21129;-85
2022/08/28 22:27:43;;;;;;;15.30;12.07;;;;;;;19.50;100.00;98965.97;4459928;78;20980;-85
2022/08/28 22:33:45;;;;;;;13.53;11.75;;;;;;;19.48;100.00;98967.80;4465903;78;21012;-85
2022/08/28 22:39:47;;;;;;;17.35;11.95;;;;;;;19.48;100.00;98970.57;4455147;77;20988;-85
2022/08/28 22:45:48;;;;;;;13.40;11.22;;;;;;;19.49;100.00;98972.75;4454200;78;21969;-85
2022/08/28 22:51:50;;;;;;;11.63;10.28;;;;;;;19.51;100.00;98977.27;4373151;80;20954;-85
2022/08/28 22:57:51;;;;;;;12.30;10.40;;;;;;;19.51;100.00;98985.59;4302914;81;21473;-86
2022/08/28 23:03:53;;;;;;;11.33;9.30;;;;;;;19.46;100.00;98993.05;4457555;78;20957;-85
2022/08/28 23:09:54;;;;;;;11.08;9.00;;;;;;;19.42;100.00;99000.08;4466039;78;21000;-85
2022/08/28 23:15:56;;;;;;;12.15;9.03;;;;;;;19.41;100.00;98999.12;4459928;78;21435;-85
2022/08/28 23:21:58;;;;;;;15.68;9.18;;;;;;;19.41;100.00;99000.51;4459311;78;21014;-84
2022/08/28 23:28:00;;;;;;;15.43;9.48;;;;;;;19.38;100.00;98993.84;4458531;78;21028;-84
2022/08/28 23:34:02;;;;;;;10.13;8.10;;;;;;;19.32;100.00;98992.02;4464492;78;21467;-85
2022/08/28 23:40:08;;;;;;;12.90;9.08;;;;;;;19.28;100.00;98989.94;4455539;78;21044;-84
2022/08/28 23:46:11;;;;;;;14.33;9.43;;;;;;;19.26;100.00;98993.12;4450619;78;21021;-84
2022/08/28 23:52:13;;;;;;;15.05;9.90;;;;;;;19.24;100.00;98994.75;4441311;78;21529;-84
2022/08/28 23:58:17;;;;;;;14.38;10.45;;;;;;;19.21;100.00;98992.84;4318423;80;20984;-84
